createdAt,value
2022-10-09T00:04:13.999Z,81.61
2022-10-09T00:09:18.849Z,81.61
2022-10-09T00:14:22.153Z,81.69
2022-10-09T00:19:25.570Z,81.86
2022-10-09T00:24:28.888Z,82.01
2022-10-09T00:29:32.909Z,81.93
2022-10-09T00:34:36.217Z,81.97
2022-10-09T00:39:39.732Z,82.03
2022-10-09T00:45:01.122Z,81.93
2022-10-09T00:50:22.711Z,81.99
2022-10-09T00:55:29.195Z,82.11
2022-10-09T01:00:33.224Z,82.08
2022-10-09T01:06:35.869Z,82.04
2022-10-09T01:11:55.342Z,82.18
2022-10-09T01:17:44.297Z,82.19
2022-10-09T01:23:11.981Z,82.19
2022-10-09T01:28:17.307Z,82.29
2022-10-09T01:33:20.650Z,82.31
2022-10-09T01:38:25.388Z,82.31
2022-10-09T01:43:28.676Z,82.44
2022-10-09T01:48:32.737Z,82.58
2022-10-09T01:53:37.446Z,82.53
2022-10-09T01:59:07.452Z,82.53
2022-10-09T02:04:14.930Z,82.57
2022-10-09T02:09:18.977Z,82.58
2022-10-09T02:14:22.831Z,82.65
2022-10-09T02:19:43.294Z,82.62
2022-10-09T02:24:47.774Z,82.62
2022-10-09T02:29:52.476Z,82.68
2022-10-09T02:34:55.919Z,82.72
2022-10-09T02:39:59.203Z,82.78
2022-10-09T02:45:02.615Z,82.83
2022-10-09T02:50:07.277Z,82.89
2022-10-09T02:55:10.676Z,83.00
2022-10-09T03:00:15.179Z,82.99
2022-10-09T03:05:18.671Z,83.10
2022-10-09T03:10:22.450Z,83.13
2022-10-09T03:15:25.762Z,83.14
2022-10-09T03:20:31.880Z,83.10
2022-10-09T03:25:35.170Z,83.18
2022-10-09T03:30:42.187Z,83.32
2022-10-09T03:35:50.381Z,83.39
2022-10-09T03:40:54.830Z,83.46
2022-10-09T03:46:01.094Z,83.51
2022-10-09T03:51:05.100Z,83.54
2022-10-09T03:56:08.532Z,83.69
2022-10-09T04:01:11.935Z,83.77
2022-10-09T04:06:15.904Z,83.91
2022-10-09T04:11:19.391Z,84.04
2022-10-09T04:16:22.696Z,84.05
2022-10-09T04:21:26.112Z,84.03
2022-10-09T04:26:29.426Z,83.98
2022-10-09T04:31:32.868Z,84.08
2022-10-09T04:36:36.187Z,84.35
2022-10-09T04:41:39.464Z,84.44
2022-10-09T04:46:43.097Z,84.72
2022-10-09T04:51:46.502Z,84.78
2022-10-09T04:56:49.805Z,84.69
2022-10-09T05:01:53.174Z,84.78
2022-10-09T05:06:56.639Z,85.14
2022-10-09T05:12:00.255Z,85.14
2022-10-09T05:17:14.592Z,84.99
2022-10-09T05:22:18.343Z,84.75
2022-10-09T05:27:21.654Z,84.60
2022-10-09T05:32:24.980Z,84.51
2022-10-09T05:37:28.206Z,84.43
2022-10-09T05:42:31.597Z,84.37
2022-10-09T05:47:35.115Z,84.39
2022-10-09T05:52:40.297Z,84.26
2022-10-09T05:57:43.657Z,84.18
2022-10-09T06:02:47.191Z,84.16
2022-10-09T06:07:51.019Z,84.07
2022-10-09T06:12:54.231Z,83.94
2022-10-09T06:17:58.045Z,83.80
2022-10-09T06:23:01.356Z,83.72
2022-10-09T06:28:04.873Z,83.69
2022-10-09T06:33:08.391Z,83.61
2022-10-09T06:38:11.910Z,83.54
2022-10-09T06:43:15.232Z,83.45
2022-10-09T06:48:18.836Z,83.18
2022-10-09T06:53:22.146Z,83.04
2022-10-09T06:58:26.161Z,83.02
2022-10-09T07:03:29.741Z,82.85
2022-10-09T07:08:34.082Z,82.84
2022-10-09T07:13:38.097Z,82.72
2022-10-09T07:18:41.576Z,82.57
2022-10-09T07:23:44.992Z,82.15
2022-10-09T07:28:49.465Z,81.76
2022-10-09T07:33:56.834Z,81.39
2022-10-09T07:39:00.660Z,81.64
2022-10-09T07:44:04.070Z,81.16
2022-10-09T07:49:07.537Z,80.64
2022-10-09T07:54:10.802Z,80.38
2022-10-09T07:59:16.459Z,80.38
2022-10-09T08:04:19.975Z,79.90
2022-10-09T08:09:23.492Z,79.62
2022-10-09T08:14:28.235Z,79.57
2022-10-09T08:19:31.680Z,79.65
2022-10-09T08:24:34.979Z,78.89
2022-10-09T08:29:40.394Z,78.89
2022-10-09T08:34:43.947Z,78.61
2022-10-09T08:39:47.222Z,78.01
2022-10-09T08:44:50.801Z,77.71
2022-10-09T08:50:02.374Z,77.40
2022-10-09T08:55:26.167Z,77.18
2022-10-09T09:00:45.250Z,76.44
2022-10-09T09:06:26.350Z,75.81
2022-10-09T09:12:19.480Z,75.50
2022-10-09T09:17:56.328Z,75.11
2022-10-09T09:23:02.203Z,74.91
2022-10-09T09:28:29.214Z,74.34
2022-10-09T09:33:45.071Z,73.81
2022-10-09T09:39:28.623Z,73.28
2022-10-09T09:44:17.497Z,71.32
2022-10-09T09:49:27.459Z,71.85
2022-10-09T09:54:31.512Z,71.93
2022-10-09T09:59:40.810Z,71.75
2022-10-09T10:04:53.261Z,71.52
2022-10-09T10:10:27.824Z,71.23
2022-10-09T10:15:34.819Z,71.42
2022-10-09T10:21:17.223Z,71.16
2022-10-09T10:26:42.322Z,70.97
2022-10-09T10:32:00.330Z,70.46
2022-10-09T10:37:15.711Z,70.08
2022-10-09T10:42:47.378Z,70.28
2022-10-09T10:47:56.532Z,69.04
2022-10-09T10:53:46.233Z,68.49
2022-10-09T10:59:26.615Z,68.11
2022-10-09T11:04:51.193Z,67.19
2022-10-09T11:10:05.859Z,67.26
2022-10-09T11:15:22.695Z,67.51
2022-10-09T11:20:59.566Z,68.13
2022-10-09T11:26:27.208Z,68.46
2022-10-09T11:31:53.614Z,68.51
2022-10-09T11:36:59.944Z,67.96
2022-10-09T11:42:04.893Z,67.29
2022-10-09T11:47:45.173Z,67.27
2022-10-09T11:53:11.377Z,67.22
2022-10-09T11:58:26.175Z,67.47
2022-10-09T12:03:37.296Z,67.81
2022-10-09T12:09:07.540Z,67.88
2022-10-09T12:14:23.854Z,68.04
2022-10-09T12:19:38.329Z,67.82
2022-10-09T12:24:47.173Z,67.76
2022-10-09T12:30:13.496Z,67.06
2022-10-09T12:35:29.119Z,66.07
2022-10-09T12:40:34.294Z,65.53
2022-10-09T12:45:44.892Z,65.21
2022-10-09T12:50:49.295Z,65.25
2022-10-09T12:56:01.473Z,65.04
2022-10-09T13:01:08.251Z,64.03
2022-10-09T13:06:19.304Z,64.11
2022-10-09T13:11:41.164Z,63.80
2022-10-09T13:16:47.816Z,64.10
2022-10-09T13:22:25.451Z,64.13
2022-10-09T13:27:35.182Z,63.65
2022-10-09T13:32:38.527Z,62.97
2022-10-09T13:37:42.461Z,62.94
2022-10-09T13:42:58.463Z,63.35
2022-10-09T13:48:02.186Z,63.06
2022-10-09T13:53:05.908Z,63.29
2022-10-09T13:58:09.730Z,63.02
2022-10-09T14:03:13.447Z,62.85
2022-10-09T14:08:16.812Z,63.05
2022-10-09T14:13:20.993Z,63.12
2022-10-09T14:18:24.612Z,63.12
2022-10-09T14:23:28.027Z,62.98
2022-10-09T14:28:31.918Z,63.25
2022-10-09T14:33:35.467Z,63.29
2022-10-09T14:38:42.981Z,63.49
2022-10-09T14:43:48.239Z,63.90
2022-10-09T14:48:55.234Z,63.79
2022-10-09T14:53:58.955Z,64.10
2022-10-09T14:59:03.325Z,64.21
2022-10-09T15:04:07.099Z,64.01
2022-10-09T15:09:11.143Z,64.00
2022-10-09T15:14:14.460Z,64.10
2022-10-09T15:19:17.970Z,64.46
2022-10-09T15:24:21.205Z,65.00
2022-10-09T15:29:24.801Z,65.22
2022-10-09T15:34:29.549Z,65.47
2022-10-09T15:39:34.197Z,65.99
2022-10-09T15:44:37.667Z,66.29
2022-10-09T15:49:44.871Z,66.40
2022-10-09T15:54:48.317Z,66.62
2022-10-09T15:59:51.731Z,66.78
2022-10-09T16:04:55.007Z,66.92
2022-10-09T16:09:59.274Z,67.10
2022-10-09T16:15:02.895Z,67.36
2022-10-09T16:20:07.717Z,67.75
2022-10-09T16:25:11.564Z,68.43
2022-10-09T16:30:14.978Z,68.67
2022-10-09T16:35:18.495Z,69.23
2022-10-09T16:40:32.687Z,69.50
2022-10-09T16:45:45.455Z,70.01
2022-10-09T16:50:48.913Z,70.07
2022-10-09T16:55:52.230Z,70.19
2022-10-09T17:01:03.901Z,70.68
2022-10-09T17:06:13.910Z,70.81
2022-10-09T17:11:18.720Z,70.95
2022-10-09T17:16:25.954Z,71.21
2022-10-09T17:21:34.149Z,71.75
2022-10-09T17:26:38.026Z,71.97
2022-10-09T17:31:41.627Z,72.19
2022-10-09T17:36:45.741Z,72.35
2022-10-09T17:41:49.265Z,72.57
2022-10-09T17:46:53.061Z,72.71
2022-10-09T17:51:56.432Z,72.94
2022-10-09T17:57:01.574Z,73.13
2022-10-09T18:02:06.030Z,73.31
2022-10-09T18:07:09.363Z,73.37
2022-10-09T18:12:12.717Z,73.37
2022-10-09T18:17:16.033Z,73.50
2022-10-09T18:22:19.439Z,73.76
2022-10-09T18:27:24.188Z,73.91
2022-10-09T18:32:27.600Z,74.13
2022-10-09T18:37:30.923Z,74.22
2022-10-09T18:42:36.065Z,74.27
2022-10-09T18:47:40.815Z,74.57
2022-10-09T18:52:45.559Z,74.89
2022-10-09T18:57:49.071Z,75.17
2022-10-09T19:02:52.486Z,74.86
2022-10-09T19:07:55.971Z,74.83
2022-10-09T19:12:59.418Z,74.89
2022-10-09T19:18:02.917Z,75.03
2022-10-09T19:23:06.197Z,75.37
2022-10-09T19:28:09.535Z,75.53
2022-10-09T19:33:14.065Z,75.79
2022-10-09T19:38:18.925Z,75.93
2022-10-09T19:43:24.478Z,75.79
2022-10-09T19:48:27.814Z,76.02
2022-10-09T19:53:31.290Z,76.13
2022-10-09T19:58:34.548Z,76.15
2022-10-09T20:03:39.840Z,76.18
2022-10-09T20:08:45.344Z,76.24
2022-10-09T20:13:55.564Z,76.34
2022-10-09T20:19:02.731Z,76.50
2022-10-09T20:24:06.929Z,76.49
2022-10-09T20:29:10.595Z,76.65
2022-10-09T20:34:13.835Z,76.93
2022-10-09T20:39:19.713Z,76.98
2022-10-09T20:44:23.392Z,76.71
2022-10-09T20:49:27.029Z,76.72
2022-10-09T20:54:30.709Z,76.92
2022-10-09T20:59:34.155Z,76.97
2022-10-09T21:04:37.566Z,77.50
2022-10-09T21:09:40.977Z,77.74
2022-10-09T21:14:44.400Z,78.00
2022-10-09T21:19:50.726Z,77.76
2022-10-09T21:24:54.085Z,77.82
2022-10-09T21:29:57.398Z,77.90
2022-10-09T21:35:00.711Z,77.94
2022-10-09T21:40:05.342Z,77.92
2022-10-09T21:45:09.855Z,78.11
2022-10-09T21:50:13.201Z,77.97
2022-10-09T21:55:16.852Z,78.04
2022-10-09T22:00:21.064Z,78.22
2022-10-09T22:05:24.479Z,78.24
2022-10-09T22:10:27.870Z,78.33
2022-10-09T22:15:31.197Z,78.61
2022-10-09T22:20:39.807Z,78.68
2022-10-09T22:25:43.240Z,78.68
2022-10-09T22:30:46.491Z,78.60
2022-10-09T22:35:49.764Z,78.42
2022-10-09T22:40:53.117Z,78.54
2022-10-09T22:45:56.507Z,78.39
2022-10-09T22:51:03.336Z,78.56
2022-10-09T22:56:15.355Z,78.69
2022-10-09T23:01:31.749Z,78.99
2022-10-09T23:06:35.532Z,78.99
2022-10-09T23:11:39.142Z,78.89
2022-10-09T23:16:43.413Z,78.83
2022-10-09T23:21:47.520Z,78.96
2022-10-09T23:26:52.234Z,78.73
2022-10-09T23:31:55.545Z,78.67
2022-10-09T23:36:58.955Z,78.72
2022-10-09T23:42:02.248Z,78.99
2022-10-09T23:47:05.612Z,79.15
2022-10-09T23:52:08.984Z,79.08
2022-10-09T23:57:12.340Z,79.14
